createdAt,value
2019-03-19T00:00:43.759Z,97711.33
2019-03-19T00:03:11.532Z,97711.24
2019-03-19T00:05:38.943Z,97714.48
2019-03-19T00:08:06.513Z,97710.12
2019-03-19T00:10:33.970Z,97715.14
2019-03-19T00:13:01.392Z,97713.30
2019-03-19T00:15:28.847Z,97714.44
2019-03-19T00:17:56.277Z,97716.70
2019-03-19T00:20:23.708Z,97722.41
2019-03-19T00:22:51.155Z,97709.77
2019-03-19T00:25:29.070Z,97702.96
2019-03-19T00:27:45.995Z,97701.66
2019-03-19T00:30:13.399Z,97699.44
2019-03-19T00:32:40.834Z,97697.03
2019-03-19T00:35:08.261Z,97697.42
2019-03-19T00:37:35.658Z,97696.81
2019-03-19T00:40:03.054Z,97693.95
2019-03-19T00:42:30.707Z,97692.73
2019-03-19T00:44:58.136Z,97684.20
2019-03-19T00:47:25.547Z,97686.63
2019-03-19T00:49:53.892Z,97690.56
2019-03-19T00:52:21.330Z,97688.84
2019-03-19T00:54:48.781Z,97690.56
2019-03-19T00:57:16.224Z,97687.66
2019-03-19T00:59:43.677Z,97690.15
2019-03-19T01:02:11.083Z,97691.87
2019-03-19T01:04:38.502Z,97686.56
2019-03-19T01:07:05.905Z,97697.15
2019-03-19T01:09:33.323Z,97690.72
2019-03-19T01:12:00.727Z,97687.97
2019-03-19T01:14:28.136Z,97691.75
2019-03-19T01:16:55.560Z,97692.09
2019-03-19T01:19:22.956Z,97685.01
2019-03-19T01:21:50.360Z,97686.16
2019-03-19T01:24:18.510Z,97682.42
2019-03-19T01:26:45.935Z,97678.98
2019-03-19T01:29:13.369Z,97682.77
2019-03-19T01:31:40.775Z,97680.59
2019-03-19T01:34:08.222Z,97691.83
2019-03-19T01:36:35.629Z,97689.20
2019-03-19T01:39:03.019Z,97692.09
2019-03-19T01:41:30.476Z,97687.15
2019-03-19T01:43:57.896Z,97686.84
2019-03-19T01:46:25.303Z,97678.34
2019-03-19T01:48:52.685Z,97676.44
2019-03-19T01:51:20.125Z,97675.00
2019-03-19T01:53:47.580Z,97684.69
2019-03-19T01:56:14.976Z,97681.92
2019-03-19T01:58:42.479Z,97680.06
2019-03-19T02:01:09.896Z,97681.80
2019-03-19T02:03:37.827Z,97680.36
2019-03-19T02:06:05.234Z,97681.06
2019-03-19T02:08:32.628Z,97675.92
2019-03-19T02:11:00.049Z,97679.33
2019-03-19T02:13:27.431Z,97678.73
2019-03-19T02:15:54.840Z,97680.62
2019-03-19T02:18:22.236Z,97685.92
2019-03-19T02:20:49.675Z,97685.52
2019-03-19T02:23:17.075Z,97687.41
2019-03-19T02:25:44.531Z,97686.61
2019-03-19T02:28:11.935Z,97691.04
2019-03-19T02:30:39.339Z,97689.78
2019-03-19T02:33:06.736Z,97696.66
2019-03-19T02:35:34.136Z,97696.03
2019-03-19T02:38:01.518Z,97695.92
2019-03-19T02:40:28.923Z,97693.54
2019-03-19T02:42:56.349Z,97687.85
2019-03-19T02:45:23.777Z,97696.66
2019-03-19T02:47:51.197Z,97695.70
2019-03-19T02:50:18.598Z,97697.42
2019-03-19T02:52:46.158Z,97695.19
2019-03-19T02:55:13.865Z,97700.66
2019-03-19T02:57:41.282Z,97697.13
2019-03-19T03:00:10.335Z,97694.63
2019-03-19T03:02:37.732Z,97709.49
2019-03-19T03:05:05.128Z,97704.81
2019-03-19T03:07:32.598Z,97704.39
2019-03-19T03:10:00.018Z,97706.86
2019-03-19T03:12:27.413Z,97699.56
2019-03-19T03:14:54.858Z,97700.50
2019-03-19T03:17:22.268Z,97710.12
2019-03-19T03:19:49.685Z,97706.00
2019-03-19T03:22:17.153Z,97709.83
2019-03-19T03:24:44.552Z,97704.77
2019-03-19T03:27:12.003Z,97704.58
2019-03-19T03:29:39.989Z,97712.33
2019-03-19T03:32:07.395Z,97705.94
2019-03-19T03:34:35.064Z,97715.59
2019-03-19T03:37:02.516Z,97716.31
2019-03-19T03:39:30.014Z,97710.88
2019-03-19T03:41:57.428Z,97718.94
2019-03-19T03:44:24.820Z,97717.28
2019-03-19T03:46:52.222Z,97714.23
2019-03-19T03:49:19.636Z,97711.58
2019-03-19T03:51:47.089Z,97719.59
2019-03-19T03:54:14.502Z,97718.60
2019-03-19T03:56:41.973Z,97721.89
2019-03-19T03:59:09.380Z,97721.41
2019-03-19T04:01:37.403Z,97722.28
2019-03-19T04:04:04.823Z,97731.81
2019-03-19T04:06:32.288Z,97727.91
2019-03-19T04:08:59.692Z,97738.34
2019-03-19T04:11:27.104Z,97733.77
2019-03-19T04:13:54.505Z,97737.73
2019-03-19T04:16:21.904Z,97737.92
2019-03-19T04:18:49.311Z,97744.89
2019-03-19T04:21:16.703Z,97738.11
2019-03-19T04:23:44.110Z,97738.68
2019-03-19T04:26:11.501Z,97742.69
2019-03-19T04:28:38.913Z,97740.88
2019-03-19T04:31:06.308Z,97737.41
2019-03-19T04:33:33.731Z,97738.63
2019-03-19T04:36:01.127Z,97740.22
2019-03-19T04:38:28.552Z,97742.24
2019-03-19T04:40:55.962Z,97739.67
2019-03-19T04:43:23.372Z,97746.13
2019-03-19T04:45:50.766Z,97744.05
2019-03-19T04:48:18.241Z,97752.61
2019-03-19T04:50:45.618Z,97750.90
2019-03-19T04:53:13.404Z,97757.44
2019-03-19T04:55:40.811Z,97752.73
2019-03-19T04:58:08.287Z,97756.02
2019-03-19T05:00:35.704Z,97742.15
2019-03-19T05:03:03.101Z,97746.80
2019-03-19T05:05:30.508Z,97751.05
2019-03-19T05:07:57.901Z,97758.73
2019-03-19T05:10:25.443Z,97759.36
2019-03-19T05:12:52.894Z,97763.14
2019-03-19T05:15:20.292Z,97763.08
2019-03-19T05:17:47.712Z,97763.62
2019-03-19T05:20:15.157Z,97768.86
2019-03-19T05:22:42.569Z,97769.41
2019-03-19T05:25:09.974Z,97769.30
2019-03-19T05:27:37.978Z,97770.83
2019-03-19T05:30:07.563Z,97768.47
2019-03-19T05:32:34.954Z,97776.65
2019-03-19T05:35:02.475Z,97767.69
2019-03-19T05:37:30.062Z,97766.52
2019-03-19T05:39:57.479Z,97771.19
2019-03-19T05:42:24.893Z,97776.95
2019-03-19T05:44:52.356Z,97779.42
2019-03-19T05:47:19.910Z,97777.59
2019-03-19T05:49:47.321Z,97781.86
2019-03-19T05:52:14.722Z,97780.42
2019-03-19T05:54:42.123Z,97789.67
2019-03-19T05:57:09.619Z,97789.41
2019-03-19T05:59:37.015Z,97801.30
2019-03-19T06:02:04.431Z,97800.66
2019-03-19T06:04:32.394Z,97801.02
2019-03-19T06:06:59.812Z,97803.61
2019-03-19T06:09:27.247Z,97806.30
2019-03-19T06:11:54.659Z,97808.54
2019-03-19T06:14:22.069Z,97813.97
2019-03-19T06:16:49.575Z,97818.16
2019-03-19T06:19:17.040Z,97816.17
2019-03-19T06:21:44.483Z,97824.19
2019-03-19T06:24:11.905Z,97826.14
2019-03-19T06:26:39.307Z,97820.87
2019-03-19T06:29:06.733Z,97822.30
2019-03-19T06:31:34.316Z,97836.61
2019-03-19T06:34:01.708Z,97833.19
2019-03-19T06:36:29.122Z,97840.44
2019-03-19T06:38:56.615Z,97840.64
2019-03-19T06:41:24.551Z,97845.08
2019-03-19T06:43:52.298Z,97842.17
2019-03-19T06:46:19.745Z,97837.45
2019-03-19T06:48:47.197Z,97842.88
2019-03-19T06:51:14.765Z,97839.43
2019-03-19T06:53:41.838Z,97834.54
2019-03-19T06:56:09.264Z,97836.77
2019-03-19T06:58:37.579Z,97841.17
2019-03-19T07:01:05.031Z,97841.56
2019-03-19T07:03:31.965Z,97837.33
2019-03-19T07:05:59.984Z,97849.80
2019-03-19T07:08:27.388Z,97857.45
2019-03-19T07:10:54.858Z,97852.86
2019-03-19T07:13:22.378Z,97855.52
2019-03-19T07:15:50.098Z,97858.33
2019-03-19T07:18:17.541Z,97857.95
2019-03-19T07:20:44.993Z,97856.59
2019-03-19T07:23:13.377Z,97867.66
2019-03-19T07:25:40.836Z,97865.50
2019-03-19T07:28:08.314Z,97867.86
2019-03-19T07:30:36.022Z,97869.45
2019-03-19T07:33:03.432Z,97867.91
2019-03-19T07:35:30.837Z,97867.54
2019-03-19T07:37:58.333Z,97871.56
2019-03-19T07:40:25.869Z,97882.14
2019-03-19T07:42:53.248Z,97884.66
2019-03-19T07:45:21.464Z,97875.30
2019-03-19T07:47:48.882Z,97887.13
2019-03-19T07:50:16.415Z,97882.98
2019-03-19T07:52:43.935Z,97881.02
2019-03-19T07:55:11.382Z,97883.48
2019-03-19T07:57:38.851Z,97881.79
2019-03-19T08:00:11.759Z,97888.28
2019-03-19T08:02:39.263Z,97886.14
2019-03-19T08:05:06.724Z,97887.95
2019-03-19T08:07:34.186Z,97880.47
2019-03-19T08:10:01.592Z,97883.91
2019-03-19T08:12:28.997Z,97884.44
2019-03-19T08:14:56.434Z,97888.07
2019-03-19T08:17:23.914Z,97889.92
2019-03-19T08:19:52.066Z,97882.88
2019-03-19T08:22:19.472Z,97886.83
2019-03-19T08:24:46.906Z,97886.66
2019-03-19T08:27:14.393Z,97890.44
2019-03-19T08:29:42.101Z,97892.13
2019-03-19T08:32:09.929Z,97899.71
2019-03-19T08:34:37.383Z,97894.42
2019-03-19T08:37:05.699Z,97891.07
2019-03-19T08:39:33.164Z,97890.77
2019-03-19T08:42:00.131Z,97894.91
2019-03-19T08:44:27.973Z,97895.84
2019-03-19T08:46:54.593Z,97888.91
2019-03-19T08:49:22.435Z,97897.09
2019-03-19T08:51:48.593Z,97892.72
2019-03-19T08:54:15.562Z,97888.77
2019-03-19T08:56:42.561Z,97902.67
2019-03-19T08:59:09.510Z,97905.09
2019-03-19T09:01:36.996Z,97899.08
2019-03-19T09:04:04.140Z,97902.56
2019-03-19T09:06:31.566Z,97909.07
2019-03-19T09:08:58.781Z,97909.06
2019-03-19T09:11:26.212Z,97913.66
2019-03-19T09:13:53.169Z,97907.78
2019-03-19T09:16:20.102Z,97907.25
2019-03-19T09:18:47.062Z,97917.16
2019-03-19T09:21:14.144Z,97912.02
2019-03-19T09:23:41.173Z,97910.89
2019-03-19T09:26:08.154Z,97906.11
2019-03-19T09:28:35.102Z,97903.02
2019-03-19T09:31:02.074Z,97909.06
2019-03-19T09:33:29.042Z,97906.24
2019-03-19T09:35:55.990Z,97910.05
2019-03-19T09:38:23.051Z,97906.88
2019-03-19T09:40:50.093Z,97912.87
2019-03-19T09:43:17.042Z,97914.70
2019-03-19T09:45:43.992Z,97908.30
2019-03-19T09:48:11.426Z,97909.80
2019-03-19T09:50:38.814Z,97905.58
2019-03-19T09:53:06.247Z,97905.17
2019-03-19T09:55:34.507Z,97903.42
2019-03-19T09:58:01.656Z,97909.33
2019-03-19T10:00:28.669Z,97902.38
2019-03-19T10:02:55.621Z,97899.03
2019-03-19T10:05:22.588Z,97899.92
2019-03-19T10:07:49.723Z,97903.50
2019-03-19T10:10:17.745Z,97896.70
2019-03-19T10:12:44.733Z,97891.61
2019-03-19T10:15:11.915Z,97892.03
2019-03-19T10:17:38.973Z,97887.84
2019-03-19T10:20:08.824Z,97888.33
2019-03-19T10:22:36.239Z,97881.95
2019-03-19T10:25:05.118Z,97877.85
2019-03-19T10:27:32.575Z,97881.08
2019-03-19T10:30:00.037Z,97886.53
2019-03-19T10:32:27.550Z,97878.04
2019-03-19T10:34:55.009Z,97877.23
2019-03-19T10:37:22.492Z,97874.66
2019-03-19T10:39:49.953Z,97874.70
2019-03-19T10:42:17.376Z,97880.25
2019-03-19T10:44:45.894Z,97879.70
2019-03-19T10:47:13.375Z,97881.84
2019-03-19T10:49:41.680Z,97887.77
2019-03-19T10:52:09.558Z,97890.52
2019-03-19T10:54:36.986Z,97895.19
2019-03-19T10:57:04.423Z,97888.33
2019-03-19T10:59:32.383Z,97891.86
2019-03-19T11:01:59.968Z,97896.34
2019-03-19T11:04:27.436Z,97891.55
2019-03-19T11:06:54.873Z,97882.31
2019-03-19T11:09:22.293Z,97878.30
2019-03-19T11:11:50.142Z,97878.50
2019-03-19T11:14:18.058Z,97885.97
2019-03-19T11:16:45.471Z,97892.28
2019-03-19T11:19:13.087Z,97893.37
2019-03-19T11:21:40.639Z,97896.02
2019-03-19T11:24:08.119Z,97887.66
2019-03-19T11:26:35.557Z,97890.20
2019-03-19T11:29:02.983Z,97891.31
2019-03-19T11:31:29.914Z,97883.45
2019-03-19T11:33:56.873Z,97881.78
2019-03-19T11:36:23.952Z,97882.94
2019-03-19T11:38:51.382Z,97879.36
2019-03-19T11:41:18.360Z,97874.73
2019-03-19T11:43:45.336Z,97879.28
2019-03-19T11:46:12.338Z,97880.17
2019-03-19T11:48:39.316Z,97879.12
2019-03-19T11:51:06.391Z,97875.47
2019-03-19T11:53:33.405Z,97881.67
2019-03-19T11:56:00.358Z,97875.02
2019-03-19T11:58:27.589Z,97865.20
2019-03-19T12:00:55.373Z,97884.77
2019-03-19T12:03:22.329Z,97873.96
2019-03-19T12:05:49.304Z,97868.95
2019-03-19T12:08:16.804Z,97866.39
2019-03-19T12:10:44.398Z,97870.85
2019-03-19T12:13:11.386Z,97864.69
2019-03-19T12:15:38.423Z,97872.67
2019-03-19T12:18:06.119Z,97862.89
2019-03-19T12:20:34.507Z,97865.10
2019-03-19T12:23:01.949Z,97871.42
2019-03-19T12:25:31.185Z,97865.73
2019-03-19T12:27:56.780Z,97861.60
2019-03-19T12:30:26.258Z,97866.30
2019-03-19T12:32:51.627Z,97862.86
2019-03-19T12:35:19.646Z,97857.73
2019-03-19T12:37:47.755Z,97853.23
2019-03-19T12:40:17.923Z,97851.70
2019-03-19T12:42:45.363Z,97849.98
2019-03-19T12:45:15.306Z,97846.62
2019-03-19T12:47:42.732Z,97848.06
2019-03-19T12:50:10.751Z,97849.39
2019-03-19T12:52:38.213Z,97851.70
2019-03-19T12:55:05.659Z,97851.58
2019-03-19T12:57:33.163Z,97852.09
2019-03-19T13:00:01.546Z,97850.31
2019-03-19T13:02:29.006Z,97858.84
2019-03-19T13:04:56.507Z,97863.51
2019-03-19T13:07:24.187Z,97860.16
2019-03-19T13:09:51.587Z,97857.00
2019-03-19T13:12:19.042Z,97848.44
2019-03-19T13:14:46.456Z,97848.20
2019-03-19T13:17:13.861Z,97858.22
2019-03-19T13:19:41.285Z,97854.97
2019-03-19T13:22:08.916Z,97855.93
2019-03-19T13:24:36.347Z,97843.10
2019-03-19T13:27:04.063Z,97853.24
2019-03-19T13:29:31.593Z,97856.06
2019-03-19T13:31:59.579Z,97858.37
2019-03-19T13:34:26.991Z,97859.25
2019-03-19T13:36:54.586Z,97853.31
2019-03-19T13:39:22.053Z,97860.14
2019-03-19T13:41:49.471Z,97845.09
2019-03-19T13:44:16.924Z,97858.20
2019-03-19T13:46:44.323Z,97852.82
2019-03-19T13:49:11.764Z,97851.70
2019-03-19T13:51:39.192Z,97845.91
2019-03-19T13:54:06.622Z,97844.71
2019-03-19T13:56:34.058Z,97847.94
2019-03-19T13:59:01.492Z,97855.69
2019-03-19T14:01:28.903Z,97848.03
2019-03-19T14:03:56.422Z,97854.23
2019-03-19T14:06:23.367Z,97855.71
2019-03-19T14:08:51.014Z,97852.30
2019-03-19T14:11:18.445Z,97846.31
2019-03-19T14:13:45.845Z,97848.77
2019-03-19T14:16:13.274Z,97843.87
2019-03-19T14:18:40.692Z,97853.39
2019-03-19T14:21:08.236Z,97849.55
2019-03-19T14:23:35.644Z,97853.45
2019-03-19T14:26:03.114Z,97856.43
2019-03-19T14:28:30.668Z,97849.14
2019-03-19T14:31:08.117Z,97846.17
2019-03-19T14:33:26.494Z,97851.97
2019-03-19T14:35:54.004Z,97848.94
2019-03-19T14:38:21.453Z,97848.55
2019-03-19T14:40:48.868Z,97849.16
2019-03-19T14:43:16.340Z,97849.13
2019-03-19T14:45:43.927Z,97860.19
2019-03-19T14:48:11.355Z,97857.19
2019-03-19T14:50:38.758Z,97851.56
2019-03-19T14:53:06.286Z,97865.83
2019-03-19T14:55:33.714Z,97863.78
2019-03-19T14:58:01.136Z,97860.59
2019-03-19T15:00:29.772Z,97858.91
2019-03-19T15:02:57.274Z,97858.89
2019-03-19T15:05:24.715Z,97859.64
2019-03-19T15:07:52.176Z,97861.92
2019-03-19T15:10:19.615Z,97849.05
2019-03-19T15:12:47.098Z,97873.31
2019-03-19T15:15:14.487Z,97862.16
2019-03-19T15:17:41.977Z,97864.34
2019-03-19T15:20:09.447Z,97854.17
2019-03-19T15:22:36.910Z,97858.02
2019-03-19T15:25:04.400Z,97863.30
2019-03-19T15:27:31.821Z,97856.13
2019-03-19T15:29:59.299Z,97859.16
2019-03-19T15:32:26.784Z,97861.59
2019-03-19T15:34:54.198Z,97861.73
2019-03-19T15:37:21.633Z,97865.47
2019-03-19T15:39:49.066Z,97877.94
2019-03-19T15:42:16.667Z,97865.66
2019-03-19T15:44:44.059Z,97863.91
2019-03-19T15:47:11.471Z,97874.68
2019-03-19T15:49:38.920Z,97875.16
2019-03-19T15:52:06.381Z,97878.45
2019-03-19T15:54:34.120Z,97880.14
2019-03-19T15:57:01.527Z,97887.92
2019-03-19T15:59:28.945Z,97893.19
2019-03-19T16:01:56.565Z,97896.63
2019-03-19T16:04:23.995Z,97894.23
2019-03-19T16:06:51.396Z,97893.92
2019-03-19T16:09:18.821Z,97895.51
2019-03-19T16:11:47.251Z,97895.09
2019-03-19T16:14:14.717Z,97896.23
2019-03-19T16:16:42.119Z,97897.23
2019-03-19T16:19:09.547Z,97899.31
2019-03-19T16:21:36.948Z,97901.67
2019-03-19T16:24:04.468Z,97907.75
2019-03-19T16:26:31.882Z,97903.69
2019-03-19T16:28:59.307Z,97907.59
2019-03-19T16:31:26.901Z,97907.11
2019-03-19T16:33:54.317Z,97917.16
2019-03-19T16:36:21.753Z,97916.69
2019-03-19T16:38:49.171Z,97908.17
2019-03-19T16:41:16.788Z,97921.06
2019-03-19T16:43:44.186Z,97927.23
2019-03-19T16:46:11.877Z,97931.28
2019-03-19T16:48:39.400Z,97928.77
2019-03-19T16:51:06.899Z,97929.67
2019-03-19T16:53:34.355Z,97930.72
2019-03-19T16:56:01.792Z,97932.85
2019-03-19T16:58:29.206Z,97923.36
2019-03-19T17:00:56.960Z,97935.48
2019-03-19T17:03:24.605Z,97940.41
2019-03-19T17:05:52.020Z,97944.73
2019-03-19T17:08:19.611Z,97945.38
2019-03-19T17:10:47.071Z,97947.64
2019-03-19T17:13:14.493Z,97963.50
2019-03-19T17:15:41.438Z,97954.92
2019-03-19T17:18:08.883Z,97963.77
2019-03-19T17:20:36.566Z,97965.28
2019-03-19T17:23:04.040Z,97967.25
2019-03-19T17:25:31.607Z,97969.31
2019-03-19T17:27:59.000Z,97976.73
2019-03-19T17:30:29.295Z,97975.20
2019-03-19T17:32:56.837Z,97976.38
2019-03-19T17:35:24.236Z,97979.86
2019-03-19T17:37:51.696Z,97983.89
2019-03-19T17:40:19.132Z,97991.94
2019-03-19T17:42:46.558Z,97983.25
2019-03-19T17:45:15.197Z,97986.22
2019-03-19T17:47:42.799Z,97983.09
2019-03-19T17:50:14.949Z,97990.69
2019-03-19T17:52:42.453Z,97992.41
2019-03-19T17:55:09.997Z,97994.23
2019-03-19T17:57:37.444Z,97994.14
2019-03-19T18:00:04.856Z,97992.16
2019-03-19T18:02:32.302Z,97993.67
2019-03-19T18:04:59.725Z,97989.72
2019-03-19T18:07:27.298Z,97995.47
2019-03-19T18:09:54.737Z,98003.94
2019-03-19T18:12:22.127Z,97999.66
2019-03-19T18:14:49.566Z,98000.41
2019-03-19T18:17:17.001Z,98000.98
2019-03-19T18:19:45.203Z,98007.67
2019-03-19T18:22:12.611Z,98016.55
2019-03-19T18:24:40.043Z,98013.06
2019-03-19T18:27:07.467Z,98006.89
2019-03-19T18:29:34.853Z,98016.89
2019-03-19T18:32:02.325Z,98018.80
2019-03-19T18:34:29.795Z,98026.52
2019-03-19T18:36:57.301Z,98021.02
2019-03-19T18:39:24.769Z,98029.75
2019-03-19T18:41:52.182Z,98025.97
2019-03-19T18:44:19.607Z,98039.04
2019-03-19T18:46:47.070Z,98041.18
2019-03-19T18:49:14.519Z,98042.63
2019-03-19T18:51:41.936Z,98044.03
2019-03-19T18:54:09.368Z,98041.05
2019-03-19T18:56:36.796Z,98050.37
2019-03-19T18:59:04.227Z,98049.27
2019-03-19T19:01:31.638Z,98044.54
2019-03-19T19:03:59.151Z,98045.84
2019-03-19T19:06:26.582Z,98044.81
2019-03-19T19:08:53.979Z,98046.88
2019-03-19T19:11:21.535Z,98050.42
2019-03-19T19:13:48.986Z,98057.42
2019-03-19T19:16:16.462Z,98054.30
2019-03-19T19:18:43.869Z,98055.64
2019-03-19T19:21:11.383Z,98057.09
2019-03-19T19:23:38.834Z,98054.06
2019-03-19T19:26:06.239Z,98057.52
2019-03-19T19:28:33.678Z,98057.56
2019-03-19T19:31:01.067Z,98055.83
2019-03-19T19:33:28.535Z,98051.45
2019-03-19T19:35:55.992Z,98057.56
2019-03-19T19:38:23.420Z,98073.66
2019-03-19T19:40:50.928Z,98071.13
2019-03-19T19:43:18.534Z,98073.42
2019-03-19T19:45:45.994Z,98073.00
2019-03-19T19:48:13.465Z,98080.08
2019-03-19T19:50:41.891Z,98076.72
2019-03-19T19:53:09.310Z,98077.09
2019-03-19T19:55:36.692Z,98082.45
2019-03-19T19:58:04.116Z,98081.66
2019-03-19T20:00:31.840Z,98080.34
2019-03-19T20:02:59.427Z,98081.37
2019-03-19T20:05:26.859Z,98082.94
2019-03-19T20:07:54.372Z,98088.54
2019-03-19T20:10:23.282Z,98086.44
2019-03-19T20:12:50.785Z,98089.05
2019-03-19T20:15:18.198Z,98087.27
2019-03-19T20:17:45.609Z,98081.63
2019-03-19T20:20:13.696Z,98093.26
2019-03-19T20:22:41.314Z,98084.61
2019-03-19T20:25:08.880Z,98100.04
2019-03-19T20:27:36.649Z,98092.98
2019-03-19T20:30:04.857Z,98093.69
2019-03-19T20:32:32.306Z,98105.53
2019-03-19T20:34:59.759Z,98109.95
2019-03-19T20:37:27.192Z,98104.65
2019-03-19T20:39:54.610Z,98106.70
2019-03-19T20:42:22.039Z,98106.74
2019-03-19T20:44:49.453Z,98110.42
2019-03-19T20:47:16.867Z,98118.33
2019-03-19T20:49:47.826Z,98110.50
2019-03-19T20:52:12.420Z,98112.81
2019-03-19T20:54:39.901Z,98119.73
2019-03-19T20:57:07.337Z,98119.43
2019-03-19T20:59:35.508Z,98118.72
2019-03-19T21:02:02.929Z,98125.03
2019-03-19T21:04:31.707Z,98123.43
2019-03-19T21:06:58.038Z,98123.55
2019-03-19T21:09:25.459Z,98135.45
2019-03-19T21:11:53.408Z,98136.38
2019-03-19T21:14:20.540Z,98137.19
2019-03-19T21:16:47.975Z,98140.14
2019-03-19T21:19:15.799Z,98146.59
2019-03-19T21:21:43.204Z,98151.81
2019-03-19T21:24:10.671Z,98146.97
2019-03-19T21:26:38.084Z,98152.10
2019-03-19T21:29:05.624Z,98154.59
2019-03-19T21:31:33.040Z,98160.53
2019-03-19T21:34:00.537Z,98161.38
2019-03-19T21:36:27.945Z,98167.90
2019-03-19T21:38:55.386Z,98175.61
2019-03-19T21:41:22.807Z,98169.63
2019-03-19T21:43:50.202Z,98168.95
2019-03-19T21:46:17.762Z,98169.49
2019-03-19T21:48:45.193Z,98170.98
2019-03-19T21:51:12.671Z,98165.67
2019-03-19T21:53:40.212Z,98167.39
2019-03-19T21:56:07.623Z,98168.20
2019-03-19T21:58:35.638Z,98170.98
2019-03-19T22:01:03.170Z,98180.89
2019-03-19T22:03:30.588Z,98174.86
2019-03-19T22:05:58.211Z,98182.81
2019-03-19T22:08:25.611Z,98181.17
2019-03-19T22:10:53.193Z,98177.50
2019-03-19T22:13:20.600Z,98182.55
2019-03-19T22:15:47.999Z,98181.75
2019-03-19T22:18:15.419Z,98179.56
2019-03-19T22:20:42.995Z,98178.95
2019-03-19T22:23:10.445Z,98179.91
2019-03-19T22:25:37.848Z,98175.92
2019-03-19T22:28:05.333Z,98181.56
2019-03-19T22:30:33.628Z,98187.59
2019-03-19T22:33:01.390Z,98192.01
2019-03-19T22:35:28.786Z,98183.48
2019-03-19T22:37:56.197Z,98189.72
2019-03-19T22:40:23.662Z,98183.45
2019-03-19T22:42:51.195Z,98183.48
2019-03-19T22:45:18.635Z,98188.71
2019-03-19T22:47:46.238Z,98195.20
2019-03-19T22:50:14.533Z,98190.86
2019-03-19T22:52:41.936Z,98196.54
2019-03-19T22:55:10.254Z,98194.64
2019-03-19T22:57:37.833Z,98199.66
2019-03-19T23:00:06.797Z,98201.81
2019-03-19T23:02:34.206Z,98201.43
2019-03-19T23:05:01.615Z,98204.96
2019-03-19T23:07:29.162Z,98200.74
2019-03-19T23:09:57.850Z,98204.96
2019-03-19T23:12:25.311Z,98208.27
2019-03-19T23:14:52.774Z,98209.22
2019-03-19T23:17:20.170Z,98201.55
2019-03-19T23:19:47.670Z,98210.91
2019-03-19T23:22:15.341Z,98212.36
2019-03-19T23:24:42.726Z,98202.58
2019-03-19T23:27:10.285Z,98202.95
2019-03-19T23:29:37.725Z,98199.12
2019-03-19T23:32:05.156Z,98202.39
2019-03-19T23:34:38.547Z,98209.09
2019-03-19T23:37:00.126Z,98213.47
2019-03-19T23:39:27.548Z,98209.48
2019-03-19T23:41:54.961Z,98220.48
2019-03-19T23:44:22.393Z,98218.14
2019-03-19T23:46:50.740Z,98223.92
2019-03-19T23:49:18.240Z,98216.03
2019-03-19T23:51:45.645Z,98225.62
2019-03-19T23:54:13.075Z,98223.89
2019-03-19T23:56:40.572Z,98219.70
2019-03-19T23:59:08.142Z,98219.00
